sensor_id;sensor_type;location;lat;lon;timestamp;pressure;altitude;pressure_sealevel;temperature;humidity
64933;BME280;51446;53.850;10.662;2023-05-25T00:01:19;102347.56;;;9.64;100.00
64933;BME280;51446;53.850;10.662;2023-05-25T00:03:44;102355.53;;;9.67;100.00
64933;BME280;51446;53.850;10.662;2023-05-25T00:06:10;102359.09;;;9.69;100.00
64933;BME280;51446;53.850;10.662;2023-05-25T00:08:36;102357.06;;;9.81;100.00
64933;BME280;51446;53.850;10.662;2023-05-25T00:11:01;102355.41;;;9.64;100.00
64933;BME280;51446;53.850;10.662;2023-05-25T00:13:26;102357.19;;;9.65;100.00
64933;BME280;51446;53.850;10.662;2023-05-25T00:15:52;102358.28;;;9.70;100.00
64933;BME280;51446;53.850;10.662;2023-05-25T00:18:17;102358.84;;;9.63;100.00
64933;BME280;51446;53.850;10.662;2023-05-25T00:20:42;102365.16;;;9.68;100.00
64933;BME280;51446;53.850;10.662;2023-05-25T00:23:08;102366.00;;;9.47;100.00
64933;BME280;51446;53.850;10.662;2023-05-25T00:25:34;102374.13;;;9.53;100.00
64933;BME280;51446;53.850;10.662;2023-05-25T00:27:59;102365.44;;;9.54;100.00
64933;BME280;51446;53.850;10.662;2023-05-25T00:30:28;102358.97;;;9.66;100.00
64933;BME280;51446;53.850;10.662;2023-05-25T00:32:53;102358.34;;;9.71;100.00
64933;BME280;51446;53.850;10.662;2023-05-25T00:35:19;102356.31;;;9.84;100.00
64933;BME280;51446;53.850;10.662;2023-05-25T00:37:45;102352.97;;;9.68;100.00
64933;BME280;51446;53.850;10.662;2023-05-25T00:40:13;102360.16;;;9.72;100.00
64933;BME280;51446;53.850;10.662;2023-05-25T00:42:40;102360.16;;;9.72;100.00
64933;BME280;51446;53.850;10.662;2023-05-25T00:45:06;102353.81;;;9.67;100.00
64933;BME280;51446;53.850;10.662;2023-05-25T00:47:32;102353.94;;;9.70;100.00
64933;BME280;51446;53.850;10.662;2023-05-25T00:49:57;102349.59;;;9.51;100.00
64933;BME280;51446;53.850;10.662;2023-05-25T00:52:22;102357.84;;;9.61;100.00
64933;BME280;51446;53.850;10.662;2023-05-25T00:54:50;102354.69;;;9.48;100.00
64933;BME280;51446;53.850;10.662;2023-05-25T00:57:19;102357.38;;;9.50;100.00
64933;BME280;51446;53.850;10.662;2023-05-25T00:59:50;102356.03;;;9.58;100.00
64933;BME280;51446;53.850;10.662;2023-05-25T01:02:17;102354.50;;;9.63;100.00
64933;BME280;51446;53.850;10.662;2023-05-25T01:04:46;102360.28;;;9.56;100.00
64933;BME280;51446;53.850;10.662;2023-05-25T01:07:21;102349.63;;;9.71;100.00
64933;BME280;51446;53.850;10.662;2023-05-25T01:09:49;102353.72;;;9.46;100.00
64933;BME280;51446;53.850;10.662;2023-05-25T01:12:18;102356.34;;;9.66;100.00
64933;BME280;51446;53.850;10.662;2023-05-25T01:14:44;102352.06;;;9.68;100.00
64933;BME280;51446;53.850;10.662;2023-05-25T01:17:13;102353.19;;;9.93;100.00
64933;BME280;51446;53.850;10.662;2023-05-25T01:19:39;102359.53;;;9.78;100.00
64933;BME280;51446;53.850;10.662;2023-05-25T01:22:22;102365.53;;;9.76;100.00
64933;BME280;51446;53.850;10.662;2023-05-25T01:24:55;102368.28;;;9.79;100.00
64933;BME280;51446;53.850;10.662;2023-05-25T01:27:39;102365.53;;;9.76;100.00
64933;BME280;51446;53.850;10.662;2023-05-25T01:30:12;102370.91;;;9.79;100.00
64933;BME280;51446;53.850;10.662;2023-05-25T01:32:38;102354.84;;;9.51;100.00
64933;BME280;51446;53.850;10.662;2023-05-25T01:35:05;102366.53;;;9.79;100.00
64933;BME280;51446;53.850;10.662;2023-05-25T01:37:31;102363.53;;;9.70;100.00
64933;BME280;51446;53.850;10.662;2023-05-25T01:39:57;102375.53;;;9.84;100.00
64933;BME280;51446;53.850;10.662;2023-05-25T01:42:22;102365.34;;;9.71;100.00
64933;BME280;51446;53.850;10.662;2023-05-25T01:44:47;102365.81;;;9.62;100.00
64933;BME280;51446;53.850;10.662;2023-05-25T01:47:28;102358.28;;;9.70;100.00
64933;BME280;51446;53.850;10.662;2023-05-25T01:52:27;102356.50;;;9.69;100.00
64933;BME280;51446;53.850;10.662;2023-05-25T01:55:11;102358.28;;;9.70;100.00
64933;BME280;51446;53.850;10.662;2023-05-25T01:57:40;102358.50;;;9.75;100.00
64933;BME280;51446;53.850;10.662;2023-05-25T02:00:11;102367.59;;;9.83;100.00
64933;BME280;51446;53.850;10.662;2023-05-25T02:02:37;102355.50;;;10.06;100.00
64933;BME280;51446;53.850;10.662;2023-05-25T02:05:05;102350.19;;;10.04;100.00
64933;BME280;51446;53.850;10.662;2023-05-25T02:07:30;102353.88;;;9.88;100.00
64933;BME280;51446;53.850;10.662;2023-05-25T02:09:55;102353.81;;;9.87;100.00
64933;BME280;51446;53.850;10.662;2023-05-25T02:12:21;102357.88;;;9.80;100.00
64933;BME280;51446;53.850;10.662;2023-05-25T02:14:46;102364.97;;;9.83;100.00
64933;BME280;51446;53.850;10.662;2023-05-25T02:17:13;102356.44;;;9.87;100.00
64933;BME280;51446;53.850;10.662;2023-05-25T02:19:38;102356.13;;;9.81;100.00
64933;BME280;51446;53.850;10.662;2023-05-25T02:22:04;102354.00;;;9.72;100.00
64933;BME280;51446;53.850;10.662;2023-05-25T02:24:29;102360.56;;;9.82;100.00
64933;BME280;51446;53.850;10.662;2023-05-25T02:26:54;102356.03;;;9.58;100.00
64933;BME280;51446;53.850;10.662;2023-05-25T02:29:20;102360.47;;;9.61;100.00
64933;BME280;51446;53.850;10.662;2023-05-25T02:31:45;102357.97;;;9.62;100.00
64933;BME280;51446;53.850;10.662;2023-05-25T02:34:10;102364.16;;;9.64;100.00
64933;BME280;51446;53.850;10.662;2023-05-25T02:36:37;102358.41;;;9.53;100.00
64933;BME280;51446;53.850;10.662;2023-05-25T02:39:03;102363.16;;;9.43;100.00
64933;BME280;51446;53.850;10.662;2023-05-25T02:41:28;102364.13;;;9.45;100.00
64933;BME280;51446;53.850;10.662;2023-05-25T02:43:54;102354.44;;;9.42;100.00
64933;BME280;51446;53.850;10.662;2023-05-25T02:46:19;102362.75;;;9.53;100.00
64933;BME280;51446;53.850;10.662;2023-05-25T02:48:46;102364.38;;;9.31;100.00
64933;BME280;51446;53.850;10.662;2023-05-25T02:51:11;102370.81;;;9.38;100.00
64933;BME280;51446;53.850;10.662;2023-05-25T02:53:36;102369.75;;;9.34;100.00
64933;BME280;51446;53.850;10.662;2023-05-25T02:56:02;102371.03;;;9.43;100.00
64933;BME280;51446;53.850;10.662;2023-05-25T02:58:29;102369.00;;;9.37;100.00
64933;BME280;51446;53.850;10.662;2023-05-25T03:00:55;102369.16;;;9.40;100.00
64933;BME280;51446;53.850;10.662;2023-05-25T03:03:20;102375.13;;;9.37;100.00
64933;BME280;51446;53.850;10.662;2023-05-25T03:05:45;102371.59;;;9.55;100.00
64933;BME280;51446;53.850;10.662;2023-05-25T03:08:11;102375.69;;;9.30;100.00
64933;BME280;51446;53.850;10.662;2023-05-25T03:10:36;102374.72;;;9.28;100.00
64933;BME280;51446;53.850;10.662;2023-05-25T03:13:01;102378.47;;;9.33;100.00
64933;BME280;51446;53.850;10.662;2023-05-25T03:15:27;102381.34;;;9.40;100.00
64933;BME280;51446;53.850;10.662;2023-05-25T03:17:52;102378.75;;;9.22;100.00
64933;BME280;51446;53.850;10.662;2023-05-25T03:20:20;102387.47;;;9.20;100.00
64933;BME280;51446;53.850;10.662;2023-05-25T03:22:48;102389.34;;;9.05;100.00
64933;BME280;51446;53.850;10.662;2023-05-25T03:25:14;102382.75;;;9.13;100.00
64933;BME280;51446;53.850;10.662;2023-05-25T03:27:39;102383.44;;;9.09;100.00
64933;BME280;51446;53.850;10.662;2023-05-25T03:30:05;102384.31;;;9.28;100.00
64933;BME280;51446;53.850;10.662;2023-05-25T03:32:30;102390.16;;;9.22;100.00
64933;BME280;51446;53.850;10.662;2023-05-25T03:34:56;102384.38;;;9.29;100.00
64933;BME280;51446;53.850;10.662;2023-05-25T03:37:21;102387.00;;;9.11;100.00
64933;BME280;51446;53.850;10.662;2023-05-25T03:39:46;102392.78;;;9.22;100.00
64933;BME280;51446;53.850;10.662;2023-05-25T03:42:12;102392.31;;;9.13;100.00
64933;BME280;51446;53.850;10.662;2023-05-25T03:44:37;102402.78;;;9.31;100.00
64933;BME280;51446;53.850;10.662;2023-05-25T03:47:02;102394.13;;;9.14;100.00
64933;BME280;51446;53.850;10.662;2023-05-25T03:49:28;102399.41;;;9.15;100.00
64933;BME280;51446;53.850;10.662;2023-05-25T03:51:53;102400.50;;;9.38;100.00
64933;BME280;51446;53.850;10.662;2023-05-25T03:54:18;102402.72;;;9.29;100.00
64933;BME280;51446;53.850;10.662;2023-05-25T03:56:43;102401.22;;;9.16;100.00
64933;BME280;51446;53.850;10.662;2023-05-25T03:59:08;102398.69;;;9.37;100.00
64933;BME280;51446;53.850;10.662;2023-05-25T04:01:34;102406.47;;;9.73;100.00
64933;BME280;51446;53.850;10.662;2023-05-25T04:04:02;102401.50;;;9.60;100.00
64933;BME280;51446;53.850;10.662;2023-05-25T04:06:27;102401.69;;;9.45;100.00
64933;BME280;51446;53.850;10.662;2023-05-25T04:08:54;102402.16;;;9.74;100.00
64933;BME280;51446;53.850;10.662;2023-05-25T04:11:19;102407.72;;;9.62;100.00
64933;BME280;51446;53.850;10.662;2023-05-25T04:13:46;102413.00;;;9.44;100.00
64933;BME280;51446;53.850;10.662;2023-05-25T04:16:12;102417.75;;;9.53;100.00
64933;BME280;51446;53.850;10.662;2023-05-25T04:18:37;102417.75;;;9.33;100.00
64933;BME280;51446;53.850;10.662;2023-05-25T04:21:03;102422.94;;;9.51;100.00
64933;BME280;51446;53.850;10.662;2023-05-25T04:23:28;102424.06;;;9.57;100.00
64933;BME280;51446;53.850;10.662;2023-05-25T04:25:54;102423.03;;;9.72;100.00
64933;BME280;51446;53.850;10.662;2023-05-25T04:28:19;102428.69;;;9.82;100.00
64933;BME280;51446;53.850;10.662;2023-05-25T04:30:44;102422.00;;;9.88;100.00
64933;BME280;51446;53.850;10.662;2023-05-25T04:33:10;102422.97;;;9.90;100.00
64933;BME280;51446;53.850;10.662;2023-05-25T04:35:38;102420.69;;;9.79;100.00
64933;BME280;51446;53.850;10.662;2023-05-25T04:38:05;102420.06;;;9.84;100.00
64933;BME280;51446;53.850;10.662;2023-05-25T04:40:31;102415.34;;;9.58;100.00
64933;BME280;51446;53.850;10.662;2023-05-25T04:42:57;102417.66;;;9.89;100.00
64933;BME280;51446;53.850;10.662;2023-05-25T04:45:22;102420.00;;;9.83;100.00
64933;BME280;51446;53.850;10.662;2023-05-25T04:47:48;102427.28;;;9.70;100.00
64933;BME280;51446;53.850;10.662;2023-05-25T04:50:13;102429.56;;;9.82;100.00
64933;BME280;51446;53.850;10.662;2023-05-25T04:52:39;102426.75;;;9.78;100.00
64933;BME280;51446;53.850;10.662;2023-05-25T04:55:05;102425.84;;;9.77;100.00
64933;BME280;51446;53.850;10.662;2023-05-25T04:57:30;102419.38;;;9.88;100.00
64933;BME280;51446;53.850;10.662;2023-05-25T04:59:56;102426.56;;;9.93;100.00
64933;BME280;51446;53.850;10.662;2023-05-25T05:02:21;102421.31;;;9.93;100.00
64933;BME280;51446;53.850;10.662;2023-05-25T05:04:47;102424.13;;;9.97;100.00
64933;BME280;51446;53.850;10.662;2023-05-25T05:07:12;102432.00;;;9.97;100.00
64933;BME280;51446;53.850;10.662;2023-05-25T05:09:38;102433.38;;;10.09;100.00
64933;BME280;51446;53.850;10.662;2023-05-25T05:12:03;102427.84;;;10.02;100.00
64933;BME280;51446;53.850;10.662;2023-05-25T05:14:29;102431.19;;;9.98;100.00
64933;BME280;51446;53.850;10.662;2023-05-25T05:16:54;102444.06;;;10.13;100.00
64933;BME280;51446;53.850;10.662;2023-05-25T05:19:19;102445.63;;;10.10;100.00
64933;BME280;51446;53.850;10.662;2023-05-25T05:21:45;102451.03;;;10.13;100.00
64933;BME280;51446;53.850;10.662;2023-05-25T05:24:10;102444.88;;;10.12;100.00
64933;BME280;51446;53.850;10.662;2023-05-25T05:26:38;102449.44;;;10.16;100.00
64933;BME280;51446;53.850;10.662;2023-05-25T05:29:03;102455.88;;;10.23;100.00
64933;BME280;51446;53.850;10.662;2023-05-25T05:31:28;102450.75;;;10.26;100.00
64933;BME280;51446;53.850;10.662;2023-05-25T05:33:54;102452.13;;;10.18;100.00
64933;BME280;51446;53.850;10.662;2023-05-25T05:36:19;102452.03;;;10.34;100.00
64933;BME280;51446;53.850;10.662;2023-05-25T05:38:44;102449.66;;;10.40;100.00
64933;BME280;51446;53.850;10.662;2023-05-25T05:41:11;102457.13;;;10.72;100.00
64933;BME280;51446;53.850;10.662;2023-05-25T05:43:39;102455.25;;;10.69;100.00
64933;BME280;51446;53.850;10.662;2023-05-25T05:46:06;102458.59;;;10.86;100.00
64933;BME280;51446;53.850;10.662;2023-05-25T05:48:31;102465.66;;;10.47;100.00
64933;BME280;51446;53.850;10.662;2023-05-25T05:50:57;102460.09;;;10.60;100.00
64933;BME280;51446;53.850;10.662;2023-05-25T05:53:22;102459.41;;;10.64;100.00
64933;BME280;51446;53.850;10.662;2023-05-25T05:55:47;102460.03;;;10.37;100.00
64933;BME280;51446;53.850;10.662;2023-05-25T05:58:12;102466.00;;;10.54;100.00
64933;BME280;51446;53.850;10.662;2023-05-25T06:00:38;102462.94;;;10.65;100.00
64933;BME280;51446;53.850;10.662;2023-05-25T06:03:03;102466.72;;;10.71;100.00
64933;BME280;51446;53.850;10.662;2023-05-25T06:05:28;102464.03;;;10.91;100.00
64933;BME280;51446;53.850;10.662;2023-05-25T06:07:53;102458.22;;;10.98;100.00
64933;BME280;51446;53.850;10.662;2023-05-25T06:10:19;102465.97;;;11.18;100.00
64933;BME280;51446;53.850;10.662;2023-05-25T06:12:44;102456.22;;;10.92;100.00
64933;BME280;51446;53.850;10.662;2023-05-25T06:15:10;102458.69;;;11.32;100.00
64933;BME280;51446;53.850;10.662;2023-05-25T06:17:35;102454.03;;;11.70;100.00
64933;BME280;51446;53.850;10.662;2023-05-25T06:20:01;102460.84;;;11.65;100.00
64933;BME280;51446;53.850;10.662;2023-05-25T06:22:26;102457.50;;;11.69;100.00
64933;BME280;51446;53.850;10.662;2023-05-25T06:24:53;102473.78;;;11.83;100.00
64933;BME280;51446;53.850;10.662;2023-05-25T06:27:18;102479.03;;;11.37;100.00
64933;BME280;51446;53.850;10.662;2023-05-25T06:29:43;102474.50;;;11.33;100.00
64933;BME280;51446;53.850;10.662;2023-05-25T06:32:08;102479.31;;;11.45;100.00
64933;BME280;51446;53.850;10.662;2023-05-25T06:34:36;102480.31;;;11.70;100.00
64933;BME280;51446;53.850;10.662;2023-05-25T06:37:02;102483.41;;;11.82;100.00
64933;BME280;51446;53.850;10.662;2023-05-25T06:39:28;102473.56;;;11.99;100.00
64933;BME280;51446;53.850;10.662;2023-05-25T06:41:53;102474.63;;;12.04;100.00
64933;BME280;51446;53.850;10.662;2023-05-25T06:44:18;102473.28;;;12.15;100.00
64933;BME280;51446;53.850;10.662;2023-05-25T06:46:44;102478.19;;;11.84;100.00
64933;BME280;51446;53.850;10.662;2023-05-25T06:49:09;102481.88;;;12.36;100.00
64933;BME280;51446;53.850;10.662;2023-05-25T06:51:34;102478.19;;;13.91;100.00
64933;BME280;51446;53.850;10.662;2023-05-25T06:54:00;102468.38;;;14.17;100.00
64933;BME280;51446;53.850;10.662;2023-05-25T06:56:25;102472.28;;;14.32;100.00
64933;BME280;51446;53.850;10.662;2023-05-25T06:58:50;102471.34;;;14.95;100.00
64933;BME280;51446;53.850;10.662;2023-05-25T07:01:15;102469.09;;;13.81;100.00
64933;BME280;51446;53.850;10.662;2023-05-25T07:03:41;102471.75;;;13.81;100.00
64933;BME280;51446;53.850;10.662;2023-05-25T07:06:07;102467.09;;;15.00;100.00
64933;BME280;51446;53.850;10.662;2023-05-25T07:08:32;102461.50;;;16.04;97.96
64933;BME280;51446;53.850;10.662;2023-05-25T07:10:57;102473.44;;;15.83;98.58
64933;BME280;51446;53.850;10.662;2023-05-25T07:13:23;102471.31;;;16.55;89.87
64933;BME280;51446;53.850;10.662;2023-05-25T07:15:48;102476.44;;;16.95;90.96
64933;BME280;51446;53.850;10.662;2023-05-25T07:18:14;102474.41;;;16.80;90.59
64933;BME280;51446;53.850;10.662;2023-05-25T07:20:39;102473.13;;;17.68;78.27
64933;BME280;51446;53.850;10.662;2023-05-25T07:23:08;102474.94;;;17.72;74.30
64933;BME280;51446;53.850;10.662;2023-05-25T07:25:34;102467.19;;;18.67;74.44
64933;BME280;51446;53.850;10.662;2023-05-25T07:28:00;102478.59;;;17.19;75.53
64933;BME280;51446;53.850;10.662;2023-05-25T07:30:26;102477.53;;;16.11;88.89
64933;BME280;51446;53.850;10.662;2023-05-25T07:32:51;102482.59;;;15.61;94.70
64933;BME280;51446;53.850;10.662;2023-05-25T07:35:16;102477.91;;;15.87;96.75
64933;BME280;51446;53.850;10.662;2023-05-25T07:37:41;102486.44;;;16.61;86.53
64933;BME280;51446;53.850;10.662;2023-05-25T07:40:07;102480.13;;;16.56;90.30
64933;BME280;51446;53.850;10.662;2023-05-25T07:42:32;102478.69;;;16.73;88.25
64933;BME280;51446;53.850;10.662;2023-05-25T07:45:00;102475.63;;;15.65;94.19
64933;BME280;51446;53.850;10.662;2023-05-25T07:47:25;102489.53;;;14.83;100.00
64933;BME280;51446;53.850;10.662;2023-05-25T07:49:51;102487.34;;;14.66;100.00
64933;BME280;51446;53.850;10.662;2023-05-25T07:52:16;102500.34;;;14.60;100.00
64933;BME280;51446;53.850;10.662;2023-05-25T07:54:43;102480.66;;;16.85;87.64
64933;BME280;51446;53.850;10.662;2023-05-25T07:57:08;102489.34;;;16.78;87.16
64933;BME280;51446;53.850;10.662;2023-05-25T07:59:34;102485.22;;;18.99;74.84
64933;BME280;51446;53.850;10.662;2023-05-25T08:01:59;102493.00;;;17.98;74.02
64933;BME280;51446;53.850;10.662;2023-05-25T08:04:24;102499.94;;;17.90;78.93
64933;BME280;51446;53.850;10.662;2023-05-25T08:06:49;102487.94;;;19.05;69.89
64933;BME280;51446;53.850;10.662;2023-05-25T08:09:15;102497.13;;;18.51;68.61
64933;BME280;51446;53.850;10.662;2023-05-25T08:11:40;102496.16;;;16.63;79.33
64933;BME280;51446;53.850;10.662;2023-05-25T08:14:06;102502.28;;;18.32;75.94
64933;BME280;51446;53.850;10.662;2023-05-25T08:16:31;102494.75;;;20.06;63.42
64933;BME280;51446;53.850;10.662;2023-05-25T08:18:56;102504.34;;;18.61;71.08
64933;BME280;51446;53.850;10.662;2023-05-25T08:21:22;102507.13;;;17.36;73.02
64933;BME280;51446;53.850;10.662;2023-05-25T08:23:47;102507.63;;;15.77;76.47
64933;BME280;51446;53.850;10.662;2023-05-25T08:26:14;102514.34;;;18.06;68.20
64933;BME280;51446;53.850;10.662;2023-05-25T08:28:39;102510.50;;;17.83;66.39
64933;BME280;51446;53.850;10.662;2023-05-25T08:31:05;102503.59;;;19.99;59.53
64933;BME280;51446;53.850;10.662;2023-05-25T08:33:30;102501.22;;;21.09;57.74
64933;BME280;51446;53.850;10.662;2023-05-25T08:35:56;102511.78;;;18.93;59.38
64933;BME280;51446;53.850;10.662;2023-05-25T08:38:23;102511.91;;;17.02;68.10
64933;BME280;51446;53.850;10.662;2023-05-25T08:41:01;102507.16;;;19.95;62.10
64933;BME280;51446;53.850;10.662;2023-05-25T08:43:27;102516.47;;;19.25;60.53
64933;BME280;51446;53.850;10.662;2023-05-25T08:45:54;102520.44;;;17.98;68.04
64933;BME280;51446;53.850;10.662;2023-05-25T08:48:23;102516.63;;;18.50;65.52
64933;BME280;51446;53.850;10.662;2023-05-25T08:50:51;102515.28;;;18.89;65.21
64933;BME280;51446;53.850;10.662;2023-05-25T08:53:17;102517.19;;;19.09;59.56
64933;BME280;51446;53.850;10.662;2023-05-25T08:55:45;102515.16;;;19.95;59.08
64933;BME280;51446;53.850;10.662;2023-05-25T08:58:16;102517.13;;;20.52;55.99
64933;BME280;51446;53.850;10.662;2023-05-25T09:00:49;102523.31;;;20.58;55.75
64933;BME280;51446;53.850;10.662;2023-05-25T09:03:18;102533.31;;;19.30;60.54
64933;BME280;51446;53.850;10.662;2023-05-25T09:05:44;102540.44;;;18.44;62.98
64933;BME280;51446;53.850;10.662;2023-05-25T09:08:10;102529.41;;;20.09;59.72
64933;BME280;51446;53.850;10.662;2023-05-25T09:10:36;102540.41;;;19.27;58.33
64933;BME280;51446;53.850;10.662;2023-05-25T09:13:03;102537.03;;;19.46;59.45
64933;BME280;51446;53.850;10.662;2023-05-25T09:15:29;102527.25;;;18.50;58.80
64933;BME280;51446;53.850;10.662;2023-05-25T09:17:54;102543.75;;;18.21;62.55
64933;BME280;51446;53.850;10.662;2023-05-25T09:20:19;102545.53;;;19.05;58.78
64933;BME280;51446;53.850;10.662;2023-05-25T09:22:46;102540.88;;;19.96;54.32
64933;BME280;51446;53.850;10.662;2023-05-25T09:25:16;102536.50;;;22.25;53.52
64933;BME280;51446;53.850;10.662;2023-05-25T09:27:41;102541.88;;;20.17;53.16
64933;BME280;51446;53.850;10.662;2023-05-25T09:30:07;102542.59;;;19.83;56.00
64933;BME280;51446;53.850;10.662;2023-05-25T09:32:33;102551.00;;;19.20;56.90
64933;BME280;51446;53.850;10.662;2023-05-25T09:35:10;102551.88;;;19.19;58.37
64933;BME280;51446;53.850;10.662;2023-05-25T09:37:36;102556.09;;;17.56;62.95
64933;BME280;51446;53.850;10.662;2023-05-25T09:40:02;102559.13;;;17.82;66.19
64933;BME280;51446;53.850;10.662;2023-05-25T09:42:30;102560.47;;;18.89;62.17
64933;BME280;51446;53.850;10.662;2023-05-25T09:44:57;102546.63;;;18.41;63.84
64933;BME280;51446;53.850;10.662;2023-05-25T09:47:22;102559.22;;;16.81;70.88
64933;BME280;51446;53.850;10.662;2023-05-25T09:49:48;102563.03;;;16.52;72.16
64933;BME280;51446;53.850;10.662;2023-05-25T09:52:14;102559.53;;;18.12;63.53
64933;BME280;51446;53.850;10.662;2023-05-25T09:54:44;102550.84;;;20.48;55.06
64933;BME280;51446;53.850;10.662;2023-05-25T09:57:09;102545.50;;;20.42;55.10
64933;BME280;51446;53.850;10.662;2023-05-25T09:59:35;102556.44;;;19.37;59.12
64933;BME280;51446;53.850;10.662;2023-05-25T10:02:00;102553.78;;;18.45;63.02
64933;BME280;51446;53.850;10.662;2023-05-25T10:04:26;102561.72;;;17.78;64.88
64933;BME280;51446;53.850;10.662;2023-05-25T10:06:51;102563.22;;;19.00;61.74
64933;BME280;51446;53.850;10.662;2023-05-25T10:09:18;102554.19;;;19.96;56.07
64933;BME280;51446;53.850;10.662;2023-05-25T10:11:44;102548.00;;;20.05;56.56
64933;BME280;51446;53.850;10.662;2023-05-25T10:14:13;102557.03;;;20.30;53.01
64933;BME280;51446;53.850;10.662;2023-05-25T10:16:39;102553.63;;;20.90;51.42
64933;BME280;51446;53.850;10.662;2023-05-25T10:19:11;102554.31;;;22.32;49.79
64933;BME280;51446;53.850;10.662;2023-05-25T10:21:41;102562.53;;;20.92;50.60
64933;BME280;51446;53.850;10.662;2023-05-25T10:24:21;102549.78;;;20.03;52.68
64933;BME280;51446;53.850;10.662;2023-05-25T10:26:52;102566.00;;;19.14;55.87
64933;BME280;51446;53.850;10.662;2023-05-25T10:29:19;102557.41;;;19.47;56.96
64933;BME280;51446;53.850;10.662;2023-05-25T10:31:46;102558.88;;;20.57;55.43
64933;BME280;51446;53.850;10.662;2023-05-25T10:34:11;102563.13;;;20.03;54.36
64933;BME280;51446;53.850;10.662;2023-05-25T10:36:37;102571.94;;;19.96;54.67
64933;BME280;51446;53.850;10.662;2023-05-25T10:39:06;102568.53;;;20.26;53.91
64933;BME280;51446;53.850;10.662;2023-05-25T10:41:32;102575.22;;;19.57;54.82
64933;BME280;51446;53.850;10.662;2023-05-25T10:43:57;102574.44;;;19.72;54.50
64933;BME280;51446;53.850;10.662;2023-05-25T10:46:23;102578.31;;;19.04;55.88
64933;BME280;51446;53.850;10.662;2023-05-25T10:48:49;102572.28;;;19.19;56.17
64933;BME280;51446;53.850;10.662;2023-05-25T10:51:38;102572.22;;;19.16;56.29
64933;BME280;51446;53.850;10.662;2023-05-25T10:54:04;102579.28;;;19.09;56.59
64933;BME280;51446;53.850;10.662;2023-05-25T10:56:29;102585.16;;;18.80;55.53
64933;BME280;51446;53.850;10.662;2023-05-25T10:58:54;102576.31;;;18.83;61.22
64933;BME280;51446;53.850;10.662;2023-05-25T11:01:21;102570.94;;;19.76;56.24
64933;BME280;51446;53.850;10.662;2023-05-25T11:03:53;102564.34;;;20.96;51.37
64933;BME280;51446;53.850;10.662;2023-05-25T11:09:22;102560.56;;;20.35;52.22
64933;BME280;51446;53.850;10.662;2023-05-25T11:17:11;102562.56;;;21.13;51.62
64933;BME280;51446;53.850;10.662;2023-05-25T11:19:47;102555.38;;;20.71;51.41
64933;BME280;51446;53.850;10.662;2023-05-25T11:22:20;102563.16;;;20.14;50.50
64933;BME280;51446;53.850;10.662;2023-05-25T11:24:56;102560.72;;;20.77;52.08
64933;BME280;51446;53.850;10.662;2023-05-25T11:27:31;102553.41;;;20.19;50.57
64933;BME280;51446;53.850;10.662;2023-05-25T11:29:58;102557.22;;;21.34;48.93
64933;BME280;51446;53.850;10.662;2023-05-25T11:32:24;102551.75;;;20.50;50.70
64933;BME280;51446;53.850;10.662;2023-05-25T11:34:54;102559.84;;;21.51;52.52
64933;BME280;51446;53.850;10.662;2023-05-25T11:37:22;102559.88;;;20.95;51.10
64933;BME280;51446;53.850;10.662;2023-05-25T11:39:52;102564.06;;;20.16;54.35
64933;BME280;51446;53.850;10.662;2023-05-25T11:42:22;102553.63;;;20.82;50.79
64933;BME280;51446;53.850;10.662;2023-05-25T11:44:47;102549.19;;;21.26;49.26
64933;BME280;51446;53.850;10.662;2023-05-25T11:47:14;102552.78;;;21.28;51.00
64933;BME280;51446;53.850;10.662;2023-05-25T11:49:44;102558.66;;;19.97;53.45
64933;BME280;51446;53.850;10.662;2023-05-25T11:52:12;102557.13;;;21.94;52.10
64933;BME280;51446;53.850;10.662;2023-05-25T11:54:38;102557.19;;;21.75;48.95
64933;BME280;51446;53.850;10.662;2023-05-25T11:57:12;102549.22;;;21.18;48.48
64933;BME280;51446;53.850;10.662;2023-05-25T11:59:38;102550.97;;;21.58;48.87
64933;BME280;51446;53.850;10.662;2023-05-25T12:02:03;102548.09;;;20.17;49.55
64933;BME280;51446;53.850;10.662;2023-05-25T12:04:30;102550.84;;;19.02;55.39
64933;BME280;51446;53.850;10.662;2023-05-25T12:07:04;102545.28;;;19.88;52.21
64933;BME280;51446;53.850;10.662;2023-05-25T12:09:29;102540.00;;;19.94;52.10
64933;BME280;51446;53.850;10.662;2023-05-25T12:11:55;102536.63;;;20.41;50.37
64933;BME280;51446;53.850;10.662;2023-05-25T12:14:20;102539.25;;;20.27;48.98
64933;BME280;51446;53.850;10.662;2023-05-25T12:16:46;102550.50;;;19.74;49.45
64933;BME280;51446;53.850;10.662;2023-05-25T12:19:11;102546.06;;;19.77;50.23
64933;BME280;51446;53.850;10.662;2023-05-25T12:21:40;102546.28;;;20.13;50.45
64933;BME280;51446;53.850;10.662;2023-05-25T12:24:07;102535.78;;;20.56;49.85
64933;BME280;51446;53.850;10.662;2023-05-25T12:26:32;102531.41;;;20.71;52.06
64933;BME280;51446;53.850;10.662;2023-05-25T12:31:26;102534.91;;;20.65;49.35
64933;BME280;51446;53.850;10.662;2023-05-25T12:34:21;102525.84;;;20.14;50.00
64933;BME280;51446;53.850;10.662;2023-05-25T12:36:52;102515.28;;;20.34;49.63
64933;BME280;51446;53.850;10.662;2023-05-25T12:41:56;102524.13;;;20.26;50.83
64933;BME280;51446;53.850;10.662;2023-05-25T12:44:28;102519.56;;;19.98;49.99
64933;BME280;51446;53.850;10.662;2023-05-25T12:46:56;102523.38;;;20.78;49.77
64933;BME280;51446;53.850;10.662;2023-05-25T12:49:33;102522.50;;;20.67;49.60
64933;BME280;51446;53.850;10.662;2023-05-25T12:52:00;102514.41;;;20.35;49.58